createdAt,value
2023-05-20T00:00:09.270Z,83.43
2023-05-20T00:01:01.141Z,83.48
2023-05-20T00:01:33.189Z,83.41
2023-05-20T00:02:05.646Z,83.39
2023-05-20T00:02:37.763Z,83.39
2023-05-20T00:03:10.234Z,83.38
2023-05-20T00:03:42.585Z,83.39
2023-05-20T00:04:14.903Z,83.37
2023-05-20T00:04:47.366Z,83.37
2023-05-20T00:05:19.788Z,83.37
2023-05-20T00:05:51.760Z,83.37
2023-05-20T00:06:23.805Z,83.37
2023-05-20T00:06:55.862Z,83.38
2023-05-20T00:07:28.304Z,83.36
2023-05-20T00:08:00.417Z,83.36
2023-05-20T00:08:32.555Z,83.37
2023-05-20T00:09:04.569Z,83.37
2023-05-20T00:09:39.041Z,83.39
2023-05-20T00:10:11.316Z,83.42
2023-05-20T00:10:43.372Z,83.42
2023-05-20T00:11:15.341Z,83.44
2023-05-20T00:11:47.385Z,83.46
2023-05-20T00:12:19.356Z,83.48
2023-05-20T00:12:51.388Z,83.50
2023-05-20T00:13:24.378Z,83.50
2023-05-20T00:13:56.309Z,83.51
2023-05-20T00:14:28.264Z,83.52
2023-05-20T00:15:01.535Z,83.51
2023-05-20T00:15:35.814Z,83.51
2023-05-20T00:16:08.175Z,83.50
2023-05-20T00:16:40.787Z,83.48
2023-05-20T00:17:12.733Z,83.46
2023-05-20T00:17:44.665Z,83.46
2023-05-20T00:18:16.619Z,83.47
2023-05-20T00:18:48.702Z,83.49
2023-05-20T00:19:20.744Z,83.50
2023-05-20T00:19:52.684Z,83.49
2023-05-20T00:20:24.854Z,83.50
2023-05-20T00:20:56.921Z,83.50
2023-05-20T00:21:29.442Z,83.52
2023-05-20T00:22:01.675Z,83.55
2023-05-20T00:22:33.736Z,83.58
2023-05-20T00:23:05.894Z,83.57
2023-05-20T00:23:38.046Z,83.57
2023-05-20T00:24:10.107Z,83.56
2023-05-20T00:24:42.153Z,83.56
2023-05-20T00:25:14.611Z,83.57
2023-05-20T00:25:46.682Z,83.60
2023-05-20T00:26:19.072Z,83.63
2023-05-20T00:26:51.376Z,83.65
2023-05-20T00:27:23.434Z,83.67
2023-05-20T00:27:55.387Z,83.68
2023-05-20T00:28:27.433Z,83.72
2023-05-20T00:28:59.521Z,83.73
2023-05-20T00:29:31.655Z,83.75
2023-05-20T00:30:04.085Z,83.77
2023-05-20T00:30:35.989Z,83.79
2023-05-20T00:31:08.408Z,83.81
2023-05-20T00:31:40.795Z,83.80
2023-05-20T00:32:13.976Z,83.83
2023-05-20T00:32:46.227Z,83.85
2023-05-20T00:33:18.440Z,83.84
2023-05-20T00:33:50.643Z,83.84
2023-05-20T00:34:22.897Z,83.83
2023-05-20T00:34:59.406Z,83.84
2023-05-20T00:35:31.283Z,83.85
2023-05-20T00:36:03.819Z,83.83
2023-05-20T00:36:36.396Z,83.84
2023-05-20T00:37:08.540Z,83.85
2023-05-20T00:37:40.419Z,83.81
2023-05-20T00:38:12.462Z,83.77
2023-05-20T00:38:44.720Z,83.71
2023-05-20T00:39:16.877Z,83.68
2023-05-20T00:39:49.125Z,83.66
2023-05-20T00:40:23.160Z,83.62
2023-05-20T00:40:55.230Z,83.58
2023-05-20T00:41:27.425Z,83.58
2023-05-20T00:42:01.987Z,83.61
2023-05-20T00:42:34.211Z,83.64
2023-05-20T00:43:06.140Z,83.65
2023-05-20T00:43:38.304Z,83.66
2023-05-20T00:44:10.446Z,83.67
2023-05-20T00:44:42.678Z,83.67
2023-05-20T00:45:14.770Z,83.68
2023-05-20T00:45:47.744Z,83.68
2023-05-20T00:46:20.019Z,83.68
2023-05-20T00:46:52.966Z,83.66
2023-05-20T00:47:31.487Z,83.66
2023-05-20T00:48:04.841Z,83.61
2023-05-20T00:48:42.324Z,83.58
2023-05-20T00:49:15.631Z,83.52
2023-05-20T00:49:50.786Z,83.50
2023-05-20T00:50:23.098Z,83.49
2023-05-20T00:50:55.448Z,83.50
2023-05-20T00:51:27.931Z,83.51
2023-05-20T00:51:59.930Z,83.52
2023-05-20T00:52:32.840Z,83.52
2023-05-20T00:53:06.250Z,83.47
2023-05-20T00:53:38.778Z,83.40
2023-05-20T00:54:11.322Z,83.31
2023-05-20T00:54:43.507Z,83.26
2023-05-20T00:55:15.773Z,83.25
2023-05-20T00:55:48.002Z,83.26
2023-05-20T00:56:21.820Z,83.28
2023-05-20T00:56:54.575Z,83.28
2023-05-20T00:57:27.175Z,83.29
2023-05-20T00:57:59.503Z,83.33
2023-05-20T00:58:32.486Z,83.37
2023-05-20T00:59:05.363Z,83.39
2023-05-20T00:59:38.377Z,83.40
2023-05-20T01:00:11.525Z,83.43
2023-05-20T01:00:43.950Z,83.44
2023-05-20T01:01:16.153Z,83.46
2023-05-20T01:01:48.977Z,83.44
2023-05-20T01:02:22.060Z,83.42
2023-05-20T01:02:56.823Z,83.39
2023-05-20T01:03:29.979Z,83.40
2023-05-20T01:04:02.718Z,83.40
2023-05-20T01:04:34.806Z,83.45
2023-05-20T01:05:07.552Z,83.50
2023-05-20T01:05:41.516Z,83.56
2023-05-20T01:06:14.402Z,83.62
2023-05-20T01:06:47.587Z,83.69
2023-05-20T01:07:20.188Z,83.79
2023-05-20T01:07:52.090Z,83.85
2023-05-20T01:08:28.455Z,83.93
2023-05-20T01:09:00.925Z,84.05
2023-05-20T01:09:33.736Z,84.09
2023-05-20T01:10:06.954Z,84.15
2023-05-20T01:10:42.381Z,84.19
2023-05-20T01:12:08.765Z,84.23
2023-05-20T01:12:50.357Z,84.27
2023-05-20T01:13:27.817Z,84.20
2023-05-20T01:14:06.196Z,84.21
2023-05-20T01:14:46.812Z,84.24
2023-05-20T01:15:20.415Z,84.28
2023-05-20T01:15:56.112Z,84.30
2023-05-20T01:16:31.356Z,84.39
2023-05-20T01:17:09.397Z,84.42
2023-05-20T01:17:46.873Z,84.48
2023-05-20T01:18:20.330Z,84.49
2023-05-20T01:18:55.744Z,84.50
2023-05-20T01:19:45.320Z,84.56
2023-05-20T01:20:18.595Z,84.59
2023-05-20T01:20:54.469Z,84.56
2023-05-20T01:21:27.620Z,84.60
2023-05-20T01:22:00.904Z,84.62
2023-05-20T01:22:33.058Z,84.63
2023-05-20T01:23:05.097Z,84.65
2023-05-20T01:23:41.246Z,84.67
2023-05-20T01:24:13.301Z,84.68
2023-05-20T01:24:49.464Z,84.69
2023-05-20T01:25:22.338Z,84.71
2023-05-20T01:25:54.378Z,84.70
2023-05-20T01:26:26.725Z,84.71
2023-05-20T01:26:59.083Z,84.71
2023-05-20T01:27:31.250Z,84.74
2023-05-20T01:28:04.280Z,84.75
2023-05-20T01:28:38.863Z,84.77
2023-05-20T01:29:13.540Z,84.75
2023-05-20T01:29:47.977Z,84.74
2023-05-20T01:30:20.920Z,84.71
2023-05-20T01:30:58.620Z,84.70
2023-05-20T01:31:36.461Z,84.72
2023-05-20T01:32:15.818Z,84.72
2023-05-20T01:32:52.347Z,84.71
2023-05-20T01:33:26.167Z,84.70
2023-05-20T01:33:59.460Z,84.70
2023-05-20T01:34:33.558Z,84.71
2023-05-20T01:35:07.030Z,84.73
2023-05-20T01:35:40.980Z,84.74
2023-05-20T01:36:14.023Z,84.76
2023-05-20T01:36:46.981Z,84.80
2023-05-20T01:37:21.697Z,84.81
2023-05-20T01:37:55.522Z,84.85
2023-05-20T01:38:28.373Z,84.86
2023-05-20T01:39:02.614Z,84.86
2023-05-20T01:39:41.264Z,84.89
2023-05-20T01:40:16.122Z,84.94
2023-05-20T01:40:49.569Z,84.95
2023-05-20T01:41:23.789Z,84.94
2023-05-20T01:41:56.638Z,84.95
2023-05-20T01:42:29.204Z,84.94
2023-05-20T01:43:02.491Z,84.94
2023-05-20T01:43:34.939Z,84.93
2023-05-20T01:44:07.644Z,84.93
2023-05-20T01:44:39.760Z,84.94
2023-05-20T01:45:12.542Z,84.95
2023-05-20T01:45:45.102Z,84.97
2023-05-20T01:46:17.224Z,84.98
2023-05-20T01:46:50.672Z,84.97
2023-05-20T01:47:22.792Z,84.98
2023-05-20T01:47:55.262Z,84.96
2023-05-20T01:48:27.312Z,84.95
2023-05-20T01:49:00.072Z,84.95
2023-05-20T01:49:32.116Z,84.95
2023-05-20T01:50:04.697Z,84.95
2023-05-20T01:50:37.969Z,84.94
2023-05-20T01:51:10.033Z,84.95
2023-05-20T01:51:41.975Z,84.94
2023-05-20T01:52:13.928Z,84.97
2023-05-20T01:52:46.077Z,84.97
2023-05-20T01:53:18.120Z,84.98
2023-05-20T01:53:50.171Z,84.97
2023-05-20T01:54:22.140Z,84.97
2023-05-20T01:54:54.207Z,84.96
2023-05-20T01:55:26.427Z,84.95
2023-05-20T01:55:58.681Z,84.93
2023-05-20T01:56:30.975Z,84.93
2023-05-20T01:57:03.208Z,84.93
2023-05-20T01:57:35.588Z,84.93
2023-05-20T01:58:07.612Z,84.89
2023-05-20T01:58:39.585Z,84.87
2023-05-20T01:59:12.036Z,84.83
2023-05-20T01:59:44.284Z,84.78
2023-05-20T02:00:16.555Z,84.77
2023-05-20T02:00:48.828Z,84.75
2023-05-20T02:01:21.063Z,84.69
2023-05-20T02:01:53.269Z,84.58
2023-05-20T02:02:25.767Z,84.50
2023-05-20T02:02:57.880Z,84.41
2023-05-20T02:03:30.228Z,84.31
2023-05-20T02:04:02.467Z,84.25
2023-05-20T02:04:34.487Z,84.20
2023-05-20T02:05:07.491Z,84.18
2023-05-20T02:05:39.594Z,84.14
2023-05-20T02:06:11.890Z,84.11
2023-05-20T02:06:43.990Z,84.07
2023-05-20T02:07:18.278Z,84.05
2023-05-20T02:07:50.166Z,84.06
2023-05-20T02:08:22.119Z,84.06
2023-05-20T02:08:54.074Z,84.04
2023-05-20T02:09:26.199Z,84.00
2023-05-20T02:09:58.477Z,83.96
2023-05-20T02:10:30.542Z,83.93
2023-05-20T02:11:02.501Z,83.90
2023-05-20T02:11:34.560Z,83.90
2023-05-20T02:12:07.720Z,83.91
2023-05-20T02:12:39.752Z,83.94
2023-05-20T02:13:11.563Z,83.95
2023-05-20T02:13:43.589Z,83.98
2023-05-20T02:14:15.619Z,83.96
2023-05-20T02:14:48.978Z,83.92
2023-05-20T02:15:21.265Z,83.91
2023-05-20T02:15:53.414Z,83.91
2023-05-20T02:16:25.797Z,83.93
2023-05-20T02:16:58.104Z,83.91
2023-05-20T02:17:30.600Z,83.89
2023-05-20T02:18:05.126Z,83.86
2023-05-20T02:18:37.040Z,83.82
2023-05-20T02:19:12.395Z,83.80
2023-05-20T02:19:46.153Z,83.81
2023-05-20T02:20:18.726Z,83.77
2023-05-20T02:20:50.453Z,83.75
2023-05-20T02:21:22.499Z,83.70
2023-05-20T02:21:54.483Z,83.68
2023-05-20T02:22:26.428Z,83.67
2023-05-20T02:22:58.679Z,83.63
2023-05-20T02:23:33.868Z,83.57
2023-05-20T02:24:07.192Z,83.51
2023-05-20T02:24:39.444Z,83.45
2023-05-20T02:25:11.920Z,83.44
2023-05-20T02:25:44.330Z,83.38
2023-05-20T02:26:17.050Z,83.35
2023-05-20T02:26:50.953Z,83.30
2023-05-20T02:27:23.012Z,83.33
2023-05-20T02:27:55.236Z,83.34
2023-05-20T02:28:27.295Z,83.35
2023-05-20T02:28:59.459Z,83.34
2023-05-20T02:29:31.700Z,83.34
2023-05-20T02:30:04.158Z,83.39
2023-05-20T02:30:39.701Z,83.39
2023-05-20T02:31:12.053Z,83.41
2023-05-20T02:31:44.032Z,83.44
2023-05-20T02:32:16.163Z,83.41
2023-05-20T02:32:48.284Z,83.32
2023-05-20T02:33:20.713Z,83.30
2023-05-20T02:33:53.503Z,83.23
2023-05-20T02:34:26.326Z,83.17
2023-05-20T02:34:59.082Z,83.13
2023-05-20T02:35:31.279Z,83.13
2023-05-20T02:36:04.023Z,83.14
2023-05-20T02:36:36.060Z,83.17
2023-05-20T02:37:08.306Z,83.15
2023-05-20T02:37:40.574Z,83.15
2023-05-20T02:38:12.936Z,83.16
2023-05-20T02:38:45.102Z,83.06
2023-05-20T02:39:17.252Z,83.09
2023-05-20T02:39:49.695Z,83.03
2023-05-20T02:40:22.651Z,82.99
2023-05-20T02:40:56.379Z,82.92
2023-05-20T02:41:28.508Z,82.92
2023-05-20T02:42:00.885Z,82.87
2023-05-20T02:42:32.960Z,82.82
2023-05-20T02:43:05.802Z,82.78
2023-05-20T02:43:38.766Z,82.80
2023-05-20T02:44:10.827Z,82.75
2023-05-20T02:44:42.765Z,82.71
2023-05-20T02:45:14.733Z,82.70
2023-05-20T02:45:47.228Z,82.60
2023-05-20T02:46:19.506Z,82.56
2023-05-20T02:46:51.793Z,82.55
2023-05-20T02:47:24.998Z,82.57
2023-05-20T02:47:57.312Z,82.56
2023-05-20T02:48:29.487Z,82.58
2023-05-20T02:49:01.439Z,82.53
2023-05-20T02:49:33.506Z,82.53
2023-05-20T02:50:06.671Z,82.49
2023-05-20T02:50:39.853Z,82.48
2023-05-20T02:51:12.000Z,82.47
2023-05-20T02:51:44.063Z,82.50
2023-05-20T02:52:16.212Z,82.54
2023-05-20T02:52:48.154Z,82.61
2023-05-20T02:53:20.611Z,82.73
2023-05-20T02:53:52.878Z,82.82
2023-05-20T02:54:25.337Z,82.92
2023-05-20T02:54:57.903Z,82.99
2023-05-20T02:55:29.758Z,83.04
2023-05-20T02:56:03.962Z,83.10
2023-05-20T02:56:36.319Z,83.20
2023-05-20T02:57:08.493Z,83.30
2023-05-20T02:57:40.813Z,83.36
2023-05-20T02:58:13.086Z,83.40
2023-05-20T02:58:45.029Z,83.40
2023-05-20T02:59:17.404Z,83.38
2023-05-20T02:59:49.657Z,83.41
2023-05-20T03:00:23.323Z,83.43
2023-05-20T03:00:57.455Z,83.43
2023-05-20T03:01:29.690Z,83.49
2023-05-20T03:02:02.864Z,83.51
2023-05-20T03:02:34.960Z,83.58
2023-05-20T03:03:07.948Z,83.61
2023-05-20T03:03:40.536Z,83.63
2023-05-20T03:04:12.643Z,83.67
2023-05-20T03:04:47.062Z,83.74
2023-05-20T03:05:19.382Z,83.88
2023-05-20T03:05:51.522Z,83.97
2023-05-20T03:06:23.786Z,84.02
2023-05-20T03:06:57.614Z,84.09
2023-05-20T03:07:30.061Z,84.22
2023-05-20T03:08:02.231Z,84.30
2023-05-20T03:08:34.411Z,84.39
2023-05-20T03:09:06.421Z,84.51
2023-05-20T03:09:38.659Z,84.60
2023-05-20T03:10:10.719Z,84.70
2023-05-20T03:10:43.017Z,84.80
2023-05-20T03:11:15.734Z,84.90
2023-05-20T03:11:48.219Z,84.97
2023-05-20T03:12:20.354Z,85.08
2023-05-20T03:12:52.494Z,85.20
2023-05-20T03:13:24.460Z,85.27
2023-05-20T03:13:56.502Z,85.34
2023-05-20T03:14:28.649Z,85.45
2023-05-20T03:15:00.827Z,85.53
2023-05-20T03:15:33.033Z,85.63
2023-05-20T03:16:05.542Z,85.71
2023-05-20T03:16:37.666Z,85.80
2023-05-20T03:17:11.259Z,85.85
2023-05-20T03:17:43.373Z,85.86
2023-05-20T03:18:15.233Z,85.82
2023-05-20T03:18:47.390Z,85.76
2023-05-20T03:19:19.616Z,85.69
2023-05-20T03:19:51.677Z,85.65
2023-05-20T03:20:23.889Z,85.65
2023-05-20T03:20:55.952Z,85.63
2023-05-20T03:21:28.918Z,85.59
2023-05-20T03:22:01.850Z,85.55
2023-05-20T03:22:33.701Z,85.53
2023-05-20T03:23:06.395Z,85.51
2023-05-20T03:23:38.410Z,85.47
2023-05-20T03:24:10.363Z,85.47
2023-05-20T03:24:43.973Z,85.47
2023-05-20T03:25:15.826Z,85.49
2023-05-20T03:25:48.291Z,85.50
2023-05-20T03:26:21.455Z,85.52
2023-05-20T03:26:53.345Z,85.54
2023-05-20T03:27:28.473Z,85.56
2023-05-20T03:28:00.390Z,85.60
2023-05-20T03:28:32.354Z,85.60
2023-05-20T03:29:05.337Z,85.62
2023-05-20T03:29:37.359Z,85.65
2023-05-20T03:30:10.037Z,85.67
2023-05-20T03:30:41.882Z,85.67
2023-05-20T03:31:13.815Z,85.67
2023-05-20T03:31:46.103Z,85.69
2023-05-20T03:32:18.137Z,85.68
2023-05-20T03:32:50.434Z,85.70
2023-05-20T03:33:25.823Z,85.71
2023-05-20T03:33:57.767Z,85.70
2023-05-20T03:34:30.023Z,85.72
2023-05-20T03:35:02.087Z,85.73
2023-05-20T03:35:34.634Z,85.74
2023-05-20T03:36:06.929Z,85.78
2023-05-20T03:36:39.162Z,85.79
2023-05-20T03:37:11.082Z,85.83
2023-05-20T03:37:43.372Z,85.87
2023-05-20T03:38:15.520Z,85.92
2023-05-20T03:38:47.767Z,85.98
2023-05-20T03:39:19.715Z,86.05
2023-05-20T03:39:51.784Z,86.11
2023-05-20T03:40:23.827Z,86.18
2023-05-20T03:40:55.786Z,86.23
2023-05-20T03:41:28.256Z,86.26
2023-05-20T03:42:00.512Z,86.31
2023-05-20T03:42:33.878Z,86.32
2023-05-20T03:43:06.448Z,86.36
2023-05-20T03:43:38.397Z,86.39
2023-05-20T03:44:10.636Z,86.41
2023-05-20T03:44:42.594Z,86.44
2023-05-20T03:45:14.495Z,86.45
2023-05-20T03:45:46.826Z,86.47
2023-05-20T03:46:19.003Z,86.52
2023-05-20T03:46:51.085Z,86.55
2023-05-20T03:47:23.173Z,86.56
2023-05-20T03:47:55.931Z,86.57
2023-05-20T03:48:27.876Z,86.58
2023-05-20T03:49:01.776Z,86.58
2023-05-20T03:49:34.120Z,86.59
2023-05-20T03:50:07.411Z,86.55
2023-05-20T03:50:39.465Z,86.53
2023-05-20T03:51:11.402Z,86.51
2023-05-20T03:51:43.654Z,86.50
2023-05-20T03:52:15.722Z,86.50
2023-05-20T03:52:47.676Z,86.50
2023-05-20T03:53:20.533Z,86.50
2023-05-20T03:53:52.490Z,86.50
2023-05-20T03:54:24.747Z,86.50
2023-05-20T03:54:57.140Z,86.50
2023-05-20T03:55:29.163Z,86.48
2023-05-20T03:56:01.197Z,86.47
2023-05-20T03:56:33.373Z,86.45
2023-05-20T03:57:05.714Z,86.48
2023-05-20T03:57:38.016Z,86.48
2023-05-20T03:58:10.221Z,86.49
2023-05-20T03:58:42.613Z,86.51
2023-05-20T03:59:14.861Z,86.52
2023-05-20T03:59:46.796Z,86.51
2023-05-20T04:00:18.846Z,86.50
2023-05-20T04:00:50.792Z,86.46
2023-05-20T04:01:25.298Z,86.46
2023-05-20T04:01:57.508Z,86.46
2023-05-20T04:02:30.030Z,86.44
2023-05-20T04:03:02.826Z,86.44
2023-05-20T04:03:35.016Z,86.43
2023-05-20T04:04:07.302Z,86.42
2023-05-20T04:04:42.872Z,86.41
2023-05-20T04:05:15.134Z,86.41
2023-05-20T04:05:48.171Z,86.39
2023-05-20T04:06:22.164Z,86.40
2023-05-20T04:06:54.229Z,86.42
2023-05-20T04:07:26.266Z,86.44
2023-05-20T04:07:58.547Z,86.48
2023-05-20T04:08:31.307Z,86.53
2023-05-20T04:09:03.750Z,86.59
2023-05-20T04:09:36.802Z,86.64
2023-05-20T04:10:09.737Z,86.64
2023-05-20T04:10:44.728Z,86.63
2023-05-20T04:11:16.778Z,86.61
2023-05-20T04:11:49.139Z,86.57
2023-05-20T04:12:21.106Z,86.54
2023-05-20T04:12:53.752Z,86.54
2023-05-20T04:13:25.666Z,86.56
2023-05-20T04:14:00.024Z,86.54
2023-05-20T04:14:34.576Z,86.60
2023-05-20T04:15:07.223Z,86.60
2023-05-20T04:15:39.339Z,86.61
2023-05-20T04:16:12.333Z,86.65
2023-05-20T04:16:45.337Z,86.66
2023-05-20T04:17:17.329Z,86.67
2023-05-20T04:17:50.239Z,86.68
2023-05-20T04:18:22.257Z,86.67
2023-05-20T04:18:54.755Z,86.66
2023-05-20T04:19:28.080Z,86.62
2023-05-20T04:20:00.343Z,86.60
2023-05-20T04:20:32.958Z,86.54
2023-05-20T04:21:05.074Z,86.50
2023-05-20T04:21:37.134Z,86.48
2023-05-20T04:22:09.390Z,86.48
2023-05-20T04:22:41.735Z,86.51
2023-05-20T04:23:13.794Z,86.52
2023-05-20T04:23:46.054Z,86.51
2023-05-20T04:24:18.001Z,86.50
2023-05-20T04:24:50.164Z,86.47
2023-05-20T04:25:22.320Z,86.50
2023-05-20T04:25:54.874Z,86.51
2023-05-20T04:26:27.020Z,86.49
2023-05-20T04:26:59.007Z,86.42
2023-05-20T04:27:33.377Z,86.34
2023-05-20T04:28:05.537Z,86.29
2023-05-20T04:28:38.598Z,86.26
2023-05-20T04:29:11.587Z,86.23
2023-05-20T04:29:47.137Z,86.19
2023-05-20T04:30:19.676Z,86.19
2023-05-20T04:31:04.237Z,86.19
2023-05-20T04:31:36.300Z,86.18
2023-05-20T04:32:10.691Z,86.15
2023-05-20T04:32:42.990Z,86.07
2023-05-20T04:33:15.806Z,85.92
2023-05-20T04:33:47.885Z,85.88
2023-05-20T04:34:26.415Z,85.75
2023-05-20T04:34:59.537Z,85.64
2023-05-20T04:35:31.881Z,85.59
2023-05-20T04:36:06.729Z,85.56
2023-05-20T04:36:39.308Z,85.52
2023-05-20T04:37:12.862Z,85.47
2023-05-20T04:37:47.893Z,85.47
2023-05-20T04:38:19.841Z,85.45
2023-05-20T04:38:51.917Z,85.42
2023-05-20T04:39:23.979Z,85.42
2023-05-20T04:39:56.195Z,85.45
2023-05-20T04:40:28.568Z,85.41
2023-05-20T04:41:01.351Z,85.33
2023-05-20T04:41:33.381Z,85.35
2023-05-20T04:42:06.177Z,85.34
2023-05-20T04:42:38.400Z,85.35
2023-05-20T04:43:10.774Z,85.38
2023-05-20T04:43:43.730Z,85.42
2023-05-20T04:44:15.858Z,85.46
2023-05-20T04:44:48.591Z,85.49
2023-05-20T04:45:22.959Z,85.51
2023-05-20T04:45:59.432Z,85.51
2023-05-20T04:46:31.680Z,85.48
2023-05-20T04:47:04.092Z,85.46
2023-05-20T04:47:38.642Z,85.47
2023-05-20T04:48:11.070Z,85.46
2023-05-20T04:48:47.684Z,85.45
2023-05-20T04:49:19.822Z,85.43
2023-05-20T04:49:52.697Z,85.40
2023-05-20T04:50:24.963Z,85.38
2023-05-20T04:50:57.100Z,85.34
2023-05-20T04:51:29.861Z,85.32
2023-05-20T04:52:02.343Z,85.29
2023-05-20T04:52:34.103Z,85.28
2023-05-20T04:53:06.026Z,85.28
2023-05-20T04:53:38.279Z,85.33
2023-05-20T04:54:10.442Z,85.35
2023-05-20T04:54:42.785Z,85.31
2023-05-20T04:55:15.798Z,85.31
2023-05-20T04:55:49.394Z,85.27
2023-05-20T04:56:22.179Z,85.29
2023-05-20T04:56:54.182Z,85.22
2023-05-20T04:57:27.072Z,85.16
2023-05-20T04:57:59.206Z,85.17
2023-05-20T04:58:31.464Z,85.16
2023-05-20T04:59:03.815Z,85.15
2023-05-20T04:59:36.044Z,85.17
2023-05-20T05:00:10.086Z,85.17
2023-05-20T05:00:42.728Z,85.12
2023-05-20T05:01:14.733Z,85.14
2023-05-20T05:01:46.798Z,85.12
2023-05-20T05:02:18.989Z,85.12
2023-05-20T05:02:51.417Z,85.16
2023-05-20T05:03:23.824Z,85.20
2023-05-20T05:03:56.605Z,85.27
2023-05-20T05:04:29.158Z,85.33
2023-05-20T05:05:01.331Z,85.36
2023-05-20T05:05:35.617Z,85.33
2023-05-20T05:06:07.780Z,85.27
2023-05-20T05:06:39.756Z,85.25
2023-05-20T05:07:11.764Z,85.26
2023-05-20T05:07:43.945Z,85.33
2023-05-20T05:08:17.093Z,85.38
2023-05-20T05:08:49.244Z,85.42
2023-05-20T05:09:21.303Z,85.42
2023-05-20T05:09:53.861Z,85.40
2023-05-20T05:10:26.133Z,85.38
2023-05-20T05:10:58.295Z,85.35
2023-05-20T05:11:30.872Z,85.32
2023-05-20T05:12:03.229Z,85.27
2023-05-20T05:12:35.464Z,85.21
2023-05-20T05:13:07.499Z,85.24
2023-05-20T05:13:39.657Z,85.26
2023-05-20T05:14:11.499Z,85.24
2023-05-20T05:14:43.765Z,85.22
2023-05-20T05:15:16.023Z,85.18
2023-05-20T05:15:48.208Z,85.07
2023-05-20T05:16:20.611Z,84.97
2023-05-20T05:16:54.944Z,84.86
2023-05-20T05:17:28.432Z,84.66
2023-05-20T05:18:00.600Z,84.58
2023-05-20T05:18:32.535Z,84.58
2023-05-20T05:19:04.646Z,84.62
2023-05-20T05:19:36.846Z,84.64
2023-05-20T05:20:09.721Z,84.51
2023-05-20T05:20:41.877Z,84.48
2023-05-20T05:21:14.246Z,84.44
2023-05-20T05:21:48.009Z,84.40
2023-05-20T05:22:20.275Z,84.41
2023-05-20T05:22:52.332Z,84.34
2023-05-20T05:23:24.494Z,84.07
2023-05-20T05:23:58.520Z,84.08
2023-05-20T05:24:30.624Z,84.11
2023-05-20T05:25:03.572Z,84.18
2023-05-20T05:25:35.863Z,84.15
2023-05-20T05:26:08.475Z,84.11
2023-05-20T05:26:40.605Z,84.13
2023-05-20T05:27:12.737Z,84.15
2023-05-20T05:27:44.796Z,84.08
2023-05-20T05:28:17.040Z,84.09
2023-05-20T05:28:49.187Z,84.06
2023-05-20T05:29:21.543Z,84.01
2023-05-20T05:29:53.401Z,83.90
2023-05-20T05:30:25.936Z,83.81
2023-05-20T05:30:58.024Z,83.76
2023-05-20T05:31:30.617Z,83.70
2023-05-20T05:32:02.990Z,83.65
2023-05-20T05:32:37.844Z,83.60
2023-05-20T05:33:10.503Z,83.67
2023-05-20T05:33:42.729Z,83.64
2023-05-20T05:34:15.149Z,83.56
2023-05-20T05:34:47.098Z,83.48
2023-05-20T05:35:19.460Z,83.45
2023-05-20T05:35:51.501Z,83.44
2023-05-20T05:36:25.573Z,83.32
2023-05-20T05:36:57.554Z,83.32
2023-05-20T05:37:29.512Z,83.34
2023-05-20T05:38:01.559Z,83.41
2023-05-20T05:38:33.589Z,83.38
2023-05-20T05:39:05.952Z,83.28
2023-05-20T05:39:38.124Z,83.30
2023-05-20T05:40:10.721Z,83.32
2023-05-20T05:40:42.799Z,83.35
2023-05-20T05:41:14.872Z,83.38
2023-05-20T05:41:47.184Z,83.34
2023-05-20T05:42:19.307Z,83.34
2023-05-20T05:42:51.462Z,83.26
2023-05-20T05:43:23.909Z,83.23
2023-05-20T05:43:56.165Z,83.21
2023-05-20T05:44:30.784Z,83.21
2023-05-20T05:45:03.055Z,83.22
2023-05-20T05:45:35.606Z,83.26
2023-05-20T05:46:09.388Z,83.30
2023-05-20T05:46:41.573Z,83.38
2023-05-20T05:47:13.747Z,83.39
2023-05-20T05:47:46.084Z,83.41
2023-05-20T05:48:18.421Z,83.48
2023-05-20T05:48:50.679Z,83.61
2023-05-20T05:49:22.711Z,83.69
2023-05-20T05:49:55.279Z,83.74
2023-05-20T05:50:27.382Z,83.74
2023-05-20T05:50:59.384Z,83.70
2023-05-20T05:51:31.428Z,83.69
2023-05-20T05:52:04.029Z,83.71
2023-05-20T05:52:36.350Z,83.75
2023-05-20T05:53:09.019Z,83.74
2023-05-20T05:53:41.177Z,83.78
2023-05-20T05:54:13.262Z,83.73
2023-05-20T05:54:45.391Z,83.71
2023-05-20T05:55:18.200Z,83.65
2023-05-20T05:55:50.314Z,83.62
2023-05-20T05:56:22.659Z,83.62
2023-05-20T05:56:58.521Z,83.65
2023-05-20T05:57:30.679Z,83.65
2023-05-20T05:58:02.820Z,83.62
2023-05-20T05:58:35.422Z,83.38
2023-05-20T05:59:07.437Z,83.24
2023-05-20T05:59:39.398Z,83.14
2023-05-20T06:00:12.153Z,83.01
2023-05-20T06:00:44.460Z,83.00
2023-05-20T06:01:16.522Z,82.93
2023-05-20T06:01:48.969Z,82.83
2023-05-20T06:02:22.652Z,82.81
2023-05-20T06:02:55.828Z,82.84
2023-05-20T06:03:29.855Z,82.92
2023-05-20T06:04:02.153Z,83.05
2023-05-20T06:04:34.418Z,83.12
2023-05-20T06:05:07.683Z,83.12
2023-05-20T06:05:39.652Z,82.95
2023-05-20T06:06:11.885Z,82.89
2023-05-20T06:06:44.042Z,82.86
2023-05-20T06:07:16.497Z,82.93
2023-05-20T06:07:48.660Z,83.06
2023-05-20T06:08:20.926Z,83.15
2023-05-20T06:08:53.057Z,83.03
2023-05-20T06:09:25.242Z,82.86
2023-05-20T06:09:57.370Z,82.82
2023-05-20T06:10:29.571Z,82.76
2023-05-20T06:11:01.696Z,82.73
2023-05-20T06:11:33.863Z,82.74
2023-05-20T06:12:06.414Z,82.80
2023-05-20T06:12:38.398Z,82.81
2023-05-20T06:13:10.701Z,82.79
2023-05-20T06:13:42.752Z,82.73
2023-05-20T06:14:14.791Z,82.75
2023-05-20T06:14:47.579Z,82.81
2023-05-20T06:15:19.724Z,82.89
2023-05-20T06:15:53.317Z,83.00
2023-05-20T06:16:25.379Z,83.13
2023-05-20T06:16:57.686Z,83.10
2023-05-20T06:17:29.721Z,82.96
2023-05-20T06:18:01.903Z,82.84
2023-05-20T06:18:34.100Z,82.65
2023-05-20T06:19:08.499Z,82.61
2023-05-20T06:19:41.139Z,82.60
2023-05-20T06:20:13.216Z,82.57
2023-05-20T06:20:45.373Z,82.62
2023-05-20T06:21:17.312Z,82.64
2023-05-20T06:21:49.579Z,82.65
2023-05-20T06:22:21.547Z,82.61
2023-05-20T06:22:53.468Z,82.61
2023-05-20T06:23:26.464Z,82.60
2023-05-20T06:23:58.828Z,82.63
2023-05-20T06:24:31.042Z,82.78
2023-05-20T06:25:03.747Z,82.95
2023-05-20T06:25:36.174Z,83.06
2023-05-20T06:26:08.253Z,83.12
2023-05-20T06:26:40.508Z,83.14
2023-05-20T06:27:12.696Z,83.10
2023-05-20T06:27:45.109Z,83.07
2023-05-20T06:28:18.409Z,83.01
2023-05-20T06:28:50.953Z,82.87
2023-05-20T06:29:23.739Z,82.74
2023-05-20T06:29:55.883Z,82.68
2023-05-20T06:30:28.249Z,82.59
2023-05-20T06:31:00.355Z,82.59
2023-05-20T06:31:33.290Z,82.53
2023-05-20T06:32:06.035Z,82.46
2023-05-20T06:32:38.239Z,82.48
2023-05-20T06:33:11.375Z,82.53
2023-05-20T06:33:43.516Z,82.53
2023-05-20T06:34:15.684Z,82.62
2023-05-20T06:34:47.731Z,82.69
2023-05-20T06:35:19.980Z,82.79
2023-05-20T06:35:56.636Z,82.93
2023-05-20T06:36:28.804Z,83.02
2023-05-20T06:37:01.055Z,83.02
2023-05-20T06:37:33.237Z,83.00
2023-05-20T06:38:05.892Z,83.02
2023-05-20T06:38:38.265Z,83.10
2023-05-20T06:39:13.148Z,83.13
2023-05-20T06:39:47.296Z,83.11
2023-05-20T06:40:19.443Z,83.13
2023-05-20T06:40:51.559Z,83.16
2023-05-20T06:41:23.485Z,83.24
2023-05-20T06:41:55.668Z,83.27
2023-05-20T06:42:27.728Z,83.29
2023-05-20T06:42:59.622Z,83.23
2023-05-20T06:43:33.143Z,82.97
2023-05-20T06:44:06.860Z,82.84
2023-05-20T06:44:38.817Z,82.83
2023-05-20T06:45:11.689Z,82.76
2023-05-20T06:45:43.877Z,82.64
2023-05-20T06:46:15.914Z,82.64
2023-05-20T06:46:48.116Z,82.69
2023-05-20T06:47:21.118Z,82.85
2023-05-20T06:47:53.995Z,82.94
2023-05-20T06:48:26.035Z,82.96
2023-05-20T06:48:58.081Z,82.94
2023-05-20T06:49:30.519Z,82.91
2023-05-20T06:50:02.677Z,82.90
2023-05-20T06:50:34.833Z,82.83
2023-05-20T06:51:08.992Z,82.83
2023-05-20T06:51:40.878Z,82.88
2023-05-20T06:52:12.928Z,82.88
2023-05-20T06:52:44.893Z,82.89
2023-05-20T06:53:17.073Z,82.88
2023-05-20T06:53:49.520Z,82.87
2023-05-20T06:54:21.674Z,82.92
2023-05-20T06:54:53.938Z,82.93
2023-05-20T06:55:26.008Z,82.85
2023-05-20T06:55:58.470Z,82.79
2023-05-20T06:56:30.978Z,82.80
2023-05-20T06:57:03.712Z,82.81
2023-05-20T06:57:36.053Z,82.87
2023-05-20T06:58:08.082Z,82.90
2023-05-20T06:58:40.415Z,82.86
2023-05-20T06:59:12.497Z,82.81
2023-05-20T06:59:44.637Z,82.79
2023-05-20T07:00:17.000Z,82.76
2023-05-20T07:00:49.245Z,82.77
2023-05-20T07:01:21.907Z,82.70
2023-05-20T07:01:53.992Z,82.33
2023-05-20T07:02:26.299Z,82.11